Time;durP1;ratioP1;P1;durP2;ratioP2;P2;SDS_P1;SDS_P2;PMS_P1;PMS_P2;Temp;Humidity;BMP_temperature;BMP_pressure;BME280_temperature;BME280_humidity;BME280_pressure;Samples;Min_cycle;Max_cycle;Signal;HPM_P1;HPM_P2
2021/01/11 00:00:04;;;;;;;23.38;13.32;;;;;;;0.22;71.67;101624.31;686031;28;974;-66
2021/01/11 00:00:46;;;;;;;21.55;12.52;;;;;;;0.21;71.71;101627.91;678461;29;61011;-64
2021/01/11 00:01:09;;;;;;;23.65;13.10;;;;;;;0.21;71.76;101622.59;680454;29;28396;-64
2021/01/11 00:01:30;;;;;;;22.77;12.68;;;;;;;0.23;71.68;101625.16;678640;29;55249;-64
2021/01/11 00:01:52;;;;;;;18.95;11.43;;;;;;;0.22;71.78;101621.66;680424;29;10569;-64
2021/01/11 00:02:13;;;;;;;20.63;12.30;;;;;;;0.25;71.62;101626.78;679703;29;42881;-64
2021/01/11 00:02:35;;;;;;;20.17;12.00;;;;;;;0.25;71.73;101624.13;679415;29;23482;-64
2021/01/11 00:02:57;;;;;;;22.10;12.13;;;;;;;0.24;71.55;101618.91;680895;29;903;-66
2021/01/11 00:03:19;;;;;;;22.17;12.02;;;;;;;0.25;71.67;101623.25;679309;29;44409;-67
2021/01/11 00:03:40;;;;;;;20.50;12.23;;;;;;;0.21;71.63;101613.78;680354;29;23230;-64
2021/01/11 00:04:01;;;;;;;21.80;12.52;;;;;;;0.24;71.66;101621.56;680239;29;23494;-64
2021/01/11 00:04:24;;;;;;;22.80;12.93;;;;;;;0.24;71.72;101624.22;679282;29;45818;-64
2021/01/11 00:04:49;;;;;;;23.73;13.55;;;;;;;0.22;71.59;101613.69;677219;29;38175;-64
2021/01/11 00:05:11;;;;;;;20.30;12.50;;;;;;;0.19;71.64;101608.53;677571;29;40127;-67
2021/01/11 00:05:33;;;;;;;23.52;13.07;;;;;;;0.21;71.91;101619.09;676284;29;62478;-67
2021/01/11 00:06:01;;;;;;;21.70;12.52;;;;;;;0.23;71.59;101617.19;676608;29;59080;-66
2021/01/11 00:06:22;;;;;;;21.20;12.45;;;;;;;0.20;71.57;101612.91;678394;29;22421;-64
2021/01/11 00:06:44;;;;;;;22.02;12.88;;;;;;;0.22;71.59;101610.16;680291;29;1047;-65
2021/01/11 00:07:08;;;;;;;22.45;12.38;;;;;;;0.23;71.73;101611.88;679965;29;22728;-64
2021/01/11 00:07:30;;;;;;;23.30;12.98;;;;;;;0.22;71.59;101604.84;677879;29;92554;-64
2021/01/11 00:07:51;;;;;;;21.42;12.73;;;;;;;0.23;71.71;101606.56;679772;29;46393;-64
2021/01/11 00:08:12;;;;;;;22.60;12.77;;;;;;;0.24;71.69;101605.63;680297;29;17809;-64
2021/01/11 00:08:33;;;;;;;22.13;12.75;;;;;;;0.22;71.66;101597.75;680330;29;11188;-64
2021/01/11 00:08:55;;;;;;;21.95;12.60;;;;;;;0.22;71.65;101599.53;680328;29;33199;-66
2021/01/11 00:09:17;;;;;;;22.75;12.60;;;;;;;0.18;71.61;101586.41;680752;29;1522;-66
2021/01/11 00:09:38;;;;;;;21.38;12.50;;;;;;;0.23;71.75;101596.78;679299;29;44398;-67
2021/01/11 00:09:59;;;;;;;20.63;12.23;;;;;;;0.24;71.69;101601.16;679514;29;46511;-67
2021/01/11 00:10:21;;;;;;;19.60;12.27;;;;;;;0.25;71.64;101596.69;681410;29;5471;-64
2021/01/11 00:10:43;;;;;;;22.23;12.23;;;;;;;0.25;71.59;101594.91;680696;29;19828;-63
2021/01/11 00:11:05;;;;;;;21.92;12.00;;;;;;;0.25;71.68;101604.66;679204;29;959;-64
2021/01/11 00:11:29;;;;;;;21.52;12.60;;;;;;;0.23;71.54;101596.78;676214;29;92250;-66
2021/01/11 00:11:50;;;;;;;21.90;12.85;;;;;;;0.23;71.63;101598.59;678696;29;22403;-67
2021/01/11 00:12:12;;;;;;;20.88;12.63;;;;;;;0.23;71.50;101604.75;677962;29;46349;-67
2021/01/11 00:12:38;;;;;;;21.88;12.52;;;;;;;0.21;71.75;101600.50;678736;29;4151;-67
2021/01/11 00:13:00;;;;;;;21.45;12.40;;;;;;;0.25;71.58;101608.19;676689;29;119137;-67
2021/01/11 00:13:21;;;;;;;21.75;12.50;;;;;;;0.24;71.52;101606.47;678981;29;46387;-67
2021/01/11 00:13:43;;;;;;;21.00;12.27;;;;;;;0.25;71.58;101609.97;680345;29;17625;-66
2021/01/11 00:14:05;;;;;;;20.48;12.00;;;;;;;0.25;71.51;101615.28;677143;29;46301;-67
2021/01/11 00:14:27;;;;;;;21.95;12.85;;;;;;;0.23;71.60;101609.22;678142;29;46310;-67
2021/01/11 00:14:48;;;;;;;20.38;12.43;;;;;;;0.25;71.70;101607.31;678715;29;23429;-67
2021/01/11 00:15:10;;;;;;;19.05;12.27;;;;;;;0.26;71.45;101612.53;678706;29;23516;-65
2021/01/11 00:15:34;;;;;;;21.90;12.52;;;;;;;0.25;71.55;101602.88;679376;29;1067;-64
2021/01/11 00:15:55;;;;;;;23.52;12.27;;;;;;;0.21;71.59;101603.16;679263;29;22414;-64
2021/01/11 00:16:16;;;;;;;19.63;11.88;;;;;;;0.25;71.58;101605.53;679751;29;46411;-66
2021/01/11 00:16:37;;;;;;;17.63;11.27;;;;;;;0.24;71.54;101608.28;680085;29;23293;-65
2021/01/11 00:16:59;;;;;;;19.30;11.48;;;;;;;0.25;71.59;101605.53;680044;29;21533;-65
2021/01/11 00:17:20;;;;;;;21.80;12.63;;;;;;;0.23;71.61;101604.75;680007;29;23418;-65
2021/01/11 00:17:42;;;;;;;20.90;12.40;;;;;;;0.20;71.66;101596.94;679876;29;47214;-65
2021/01/11 00:18:04;;;;;;;21.35;12.60;;;;;;;0.24;71.64;101598.50;679290;29;46301;-64
2021/01/11 00:18:25;;;;;;;22.50;12.52;;;;;;;0.25;71.58;101597.56;679465;29;39251;-63
2021/01/11 00:18:47;;;;;;;20.48;12.70;;;;;;;0.24;71.53;101609.13;680340;29;22328;-65
2021/01/11 00:19:08;;;;;;;19.73;12.68;;;;;;;0.25;71.55;101605.53;679298;29;46448;-65
2021/01/11 00:19:29;;;;;;;20.92;12.70;;;;;;;0.25;71.54;101597.56;680100;29;23498;-64
2021/01/11 00:19:51;;;;;;;21.77;12.27;;;;;;;0.24;71.50;101595.84;679981;29;21550;-65
2021/01/11 00:20:13;;;;;;;21.85;12.52;;;;;;;0.26;71.52;101601.06;680857;29;21376;-67
2021/01/11 00:20:34;;;;;;;23.73;13.30;;;;;;;0.25;71.43;101599.34;678374;29;69484;-67
2021/01/11 00:20:56;;;;;;;24.08;13.07;;;;;;;0.25;71.49;101597.56;680217;29;22218;-67
2021/01/11 00:21:17;;;;;;;20.95;12.50;;;;;;;0.26;71.44;101593.09;680971;29;22406;-63
2021/01/11 00:21:38;;;;;;;21.80;12.38;;;;;;;0.24;71.53;101595.84;679683;29;31189;-64
2021/01/11 00:22:00;;;;;;;22.15;12.60;;;;;;;0.26;71.44;101598.41;680874;29;898;-64
2021/01/11 00:22:21;;;;;;;22.88;12.52;;;;;;;0.26;71.51;101595.75;679160;29;46306;-64
2021/01/11 00:22:43;;;;;;;22.15;12.32;;;;;;;0.21;71.39;101587.19;679835;29;21532;-64
2021/01/11 00:23:04;;;;;;;18.70;11.27;;;;;;;0.25;71.57;101594.03;679317;29;45270;-65
2021/01/11 00:23:26;;;;;;;19.83;12.75;;;;;;;0.26;71.45;101593.94;680065;29;21539;-65
2021/01/11 00:23:47;;;;;;;20.92;12.50;;;;;;;0.26;71.42;101596.59;679544;29;46351;-66
2021/01/11 00:24:08;;;;;;;21.98;12.25;;;;;;;0.26;71.48;101598.41;679622;29;23503;-67
2021/01/11 00:24:30;;;;;;;20.98;12.02;;;;;;;0.25;71.46;101589.59;680256;29;21512;-67
2021/01/11 00:24:51;;;;;;;20.92;12.20;;;;;;;0.27;71.51;101595.66;679149;29;46201;-67
2021/01/11 00:25:13;;;;;;;20.60;12.27;;;;;;;0.24;71.50;101587.03;680229;29;23473;-66
2021/01/11 00:25:34;;;;;;;20.95;11.88;;;;;;;0.25;71.46;101597.56;679746;29;28302;-67
2021/01/11 00:25:56;;;;;;;20.23;12.00;;;;;;;0.26;71.46;101587.78;679993;29;22344;-66
2021/01/11 00:26:18;;;;;;;18.83;12.15;;;;;;;0.27;71.50;101592.16;679637;29;46330;-65
2021/01/11 00:26:39;;;;;;;20.08;12.00;;;;;;;0.27;71.43;101589.50;680259;29;12242;-64
2021/01/11 00:27:00;;;;;;;20.05;11.73;;;;;;;0.27;71.47;101593.00;679979;29;23506;-65
2021/01/11 00:27:22;;;;;;;20.33;12.13;;;;;;;0.27;71.43;101589.50;679197;29;46351;-64
2021/01/11 00:27:43;;;;;;;21.52;12.52;;;;;;;0.27;71.50;101589.50;679966;29;24442;-64
2021/01/11 00:28:05;;;;;;;21.30;12.98;;;;;;;0.26;71.33;101591.28;678926;29;46412;-65
2021/01/11 00:28:26;;;;;;;18.77;11.77;;;;;;;0.27;71.49;101590.34;680126;29;22408;-64
2021/01/11 00:28:47;;;;;;;20.15;12.00;;;;;;;0.26;71.33;101591.28;680760;29;23455;-64
2021/01/11 00:29:08;;;;;;;20.98;12.52;;;;;;;0.27;71.49;101590.34;680145;29;22408;-63
2021/01/11 00:29:30;;;;;;;19.88;12.20;;;;;;;0.26;71.42;101599.25;680363;29;11476;-64
2021/01/11 00:29:51;;;;;;;19.83;11.77;;;;;;;0.27;71.32;101600.13;679958;29;21270;-64
2021/01/11 00:30:13;;;;;;;22.00;12.10;;;;;;;0.24;71.30;101595.84;679128;29;40232;-64
2021/01/11 00:30:34;;;;;;;21.08;12.15;;;;;;;0.27;71.35;101589.50;680263;29;21586;-64
2021/01/11 00:30:56;;;;;;;18.42;11.18;;;;;;;0.26;71.30;101595.75;679426;29;45612;-64
2021/01/11 00:31:24;;;;;;;20.05;11.82;;;;;;;0.22;71.40;101592.44;680953;29;22412;-65
2021/01/11 00:31:45;;;;;;;21.17;11.98;;;;;;;0.24;71.29;101589.69;676259;29;129632;-65
2021/01/11 00:32:07;;;;;;;21.52;12.13;;;;;;;0.25;71.35;101591.38;680109;29;14941;-65
2021/01/11 00:32:32;;;;;;;20.80;12.18;;;;;;;0.26;71.42;101595.75;680428;29;12269;-65
2021/01/11 00:32:54;;;;;;;20.92;11.85;;;;;;;0.26;71.40;101598.41;674120;29;154962;-65
2021/01/11 00:33:15;;;;;;;21.83;12.50;;;;;;;0.25;71.25;101599.34;677783;29;44263;-65
2021/01/11 00:33:38;;;;;;;23.40;13.20;;;;;;;0.22;71.34;101588.91;684226;28;23428;-65
2021/01/11 00:34:00;;;;;;;20.38;12.48;;;;;;;0.25;71.37;101588.72;682695;28;63388;-64
2021/01/11 00:34:21;;;;;;;20.13;11.75;;;;;;;0.25;71.32;101602.88;684282;28;21527;-64
2021/01/11 00:34:42;;;;;;;18.50;11.68;;;;;;;0.25;71.32;101600.22;683118;28;44385;-64
2021/01/11 00:35:07;;;;;;;19.92;12.00;;;;;;;0.26;71.25;101601.06;683738;28;21517;-64
2021/01/11 00:35:28;;;;;;;21.50;11.95;;;;;;;0.25;71.25;101599.34;680759;28;116385;-64
2021/01/11 00:35:50;;;;;;;21.90;11.98;;;;;;;0.24;71.49;101598.50;684142;28;22358;-64
2021/01/11 00:36:11;;;;;;;20.38;11.90;;;;;;;0.23;71.37;101599.44;680258;29;46335;-64
2021/01/11 00:36:33;;;;;;;21.35;12.15;;;;;;;0.22;71.42;101591.56;680267;29;21533;-64
2021/01/11 00:36:58;;;;;;;20.65;12.38;;;;;;;0.22;71.44;101600.41;681148;28;23420;-64
2021/01/11 00:37:20;;;;;;;20.77;11.77;;;;;;;0.24;71.46;101603.81;679694;28;113611;-64
2021/01/11 00:37:41;;;;;;;20.65;11.80;;;;;;;0.25;71.46;101600.22;682656;28;44404;-65
2021/01/11 00:38:02;;;;;;;19.58;12.07;;;;;;;0.25;71.32;101602.88;681783;28;22005;-65
2021/01/11 00:38:23;;;;;;;21.55;12.65;;;;;;;0.25;71.38;101602.88;682269;28;46354;-65
2021/01/11 00:38:45;;;;;;;19.80;12.07;;;;;;;0.26;71.29;101609.03;682797;28;21536;-65
2021/01/11 00:39:06;;;;;;;19.40;11.77;;;;;;;0.28;71.51;101604.47;682013;28;44536;-65
2021/01/11 00:39:28;;;;;;;19.85;11.77;;;;;;;0.26;71.25;101598.41;683132;28;22361;-65
2021/01/11 00:39:49;;;;;;;19.75;12.13;;;;;;;0.26;71.34;101599.25;682267;28;47213;-65
2021/01/11 00:40:11;;;;;;;19.92;11.95;;;;;;;0.26;71.24;101598.41;684023;28;7606;-64
2021/01/11 00:40:33;;;;;;;20.33;11.95;;;;;;;0.28;71.42;101597.38;682135;28;46354;-65
2021/01/11 00:40:54;;;;;;;22.17;12.40;;;;;;;0.28;71.43;101599.16;682279;28;47351;-64
2021/01/11 00:41:18;;;;;;;21.40;11.98;;;;;;;0.31;71.26;101604.31;683743;28;23402;-64
2021/01/11 00:41:39;;;;;;;21.17;12.45;;;;;;;0.28;71.05;101596.50;681946;28;58312;-64
2021/01/11 00:42:01;;;;;;;19.25;11.82;;;;;;;0.26;71.23;101596.59;682670;28;38826;-65
2021/01/11 00:42:22;;;;;;;18.73;11.65;;;;;;;0.31;71.13;101591.03;682210;28;30680;-65
2021/01/11 00:42:44;;;;;;;21.08;12.40;;;;;;;0.30;71.11;101587.50;683097;28;23500;-65
2021/01/11 00:43:05;;;;;;;21.98;12.52;;;;;;;0.30;71.21;101598.16;682742;28;21516;-67
2021/01/11 00:43:26;;;;;;;22.90;12.80;;;;;;;0.29;71.24;101592.91;682374;28;46348;-66
2021/01/11 00:43:48;;;;;;;18.48;11.95;;;;;;;0.25;71.27;101589.59;683959;28;24409;-66
2021/01/11 00:44:09;;;;;;;19.92;11.85;;;;;;;0.30;71.14;101606.13;682156;28;46160;-67
2021/01/11 00:44:31;;;;;;;20.90;12.18;;;;;;;0.24;71.12;101592.34;682961;28;21519;-67
2021/01/11 00:44:52;;;;;;;20.38;12.35;;;;;;;0.31;71.19;101601.66;682903;28;22405;-66
2021/01/11 00:45:14;;;;;;;21.98;12.43;;;;;;;0.31;71.14;101601.66;682083;28;46369;-65
2021/01/11 00:45:35;;;;;;;20.63;12.35;;;;;;;0.28;71.12;101602.69;683145;28;21413;-66
2021/01/11 00:45:56;;;;;;;20.45;12.40;;;;;;;0.26;71.14;101598.41;682280;28;46499;-65
2021/01/11 00:46:21;;;;;;;21.92;12.13;;;;;;;0.29;71.13;101600.88;683488;28;22384;-67
2021/01/11 00:46:43;;;;;;;19.20;11.75;;;;;;;0.25;71.21;101594.03;679567;28;115279;-66
2021/01/11 00:47:05;;;;;;;18.67;11.77;;;;;;;0.30;71.31;101603.47;681861;28;44720;-67
2021/01/11 00:47:26;;;;;;;22.45;12.20;;;;;;;0.31;71.20;101604.31;682246;28;46420;-66
2021/01/11 00:47:47;;;;;;;21.55;12.02;;;;;;;0.31;71.19;101605.19;683737;28;20873;-66
2021/01/11 00:48:10;;;;;;;21.77;12.32;;;;;;;0.31;71.07;101599.00;682220;28;47545;-66
2021/01/11 00:48:31;;;;;;;22.63;12.98;;;;;;;0.28;71.14;101594.72;682390;28;24521;-67
2021/01/11 00:48:53;;;;;;;20.35;11.90;;;;;;;0.26;71.06;101595.75;682656;28;23424;-64
2021/01/11 00:49:15;;;;;;;20.83;12.35;;;;;;;0.28;71.22;101604.47;681732;28;44207;-64
2021/01/11 00:49:36;;;;;;;19.85;12.10;;;;;;;0.29;71.18;101601.72;681487;28;46447;-64
2021/01/11 00:49:57;;;;;;;23.30;12.82;;;;;;;0.28;71.23;101600.03;683020;28;16815;-63
2021/01/11 00:50:19;;;;;;;23.75;12.65;;;;;;;0.26;71.03;101595.75;683114;28;22383;-66
2021/01/11 00:50:41;;;;;;;21.85;13.10;;;;;;;0.27;71.04;101600.97;678234;29;67290;-67
2021/01/11 00:51:09;;;;;;;20.08;12.15;;;;;;;0.27;71.19;101595.66;680113;29;23467;-67
2021/01/11 00:51:32;;;;;;;18.73;11.95;;;;;;;0.27;71.12;101606.28;674086;29;136513;-65
2021/01/11 00:51:59;;;;;;;21.58;12.52;;;;;;;0.28;71.18;101599.16;673584;29;138870;-66
2021/01/11 00:52:22;;;;;;;20.38;12.10;;;;;;;0.26;71.20;101601.06;675831;29;69499;-66
2021/01/11 00:52:44;;;;;;;20.75;11.90;;;;;;;0.27;71.29;101595.66;676971;29;46417;-65
2021/01/11 00:53:10;;;;;;;19.63;11.55;;;;;;;0.25;71.18;101594.03;675772;29;138413;-66
2021/01/11 00:53:34;;;;;;;21.05;12.15;;;;;;;0.24;71.21;101587.03;679085;29;23554;-66
2021/01/11 00:53:56;;;;;;;19.27;11.65;;;;;;;0.25;71.29;101600.22;676544;29;87490;-65
2021/01/11 00:54:17;;;;;;;19.20;11.85;;;;;;;0.26;71.14;101593.94;674317;29;45247;-64
2021/01/11 00:54:40;;;;;;;20.75;12.43;;;;;;;0.25;71.20;101599.34;675678;29;69453;-64
2021/01/11 00:55:09;;;;;;;19.73;11.93;;;;;;;0.25;71.22;101594.91;671629;29;113509;-65
2021/01/11 00:55:31;;;;;;;20.95;12.15;;;;;;;0.24;71.16;101601.16;671509;29;115089;-64
2021/01/11 00:56:02;;;;;;;18.77;11.75;;;;;;;0.24;71.20;101598.50;673915;29;159158;-64
2021/01/11 00:56:24;;;;;;;19.67;12.27;;;;;;;0.24;71.23;101603.81;678213;29;44787;-65
2021/01/11 00:56:45;;;;;;;20.13;12.15;;;;;;;0.26;71.27;101596.59;677697;29;46331;-65
2021/01/11 00:57:19;;;;;;;20.92;12.63;;;;;;;0.22;71.24;101592.44;672171;29;161513;-65
2021/01/11 00:57:45;;;;;;;21.17;12.52;;;;;;;0.24;71.31;101600.31;672749;29;137412;-66
2021/01/11 00:58:13;;;;;;;21.13;12.93;;;;;;;0.23;71.22;101604.75;671007;29;136393;-64
2021/01/11 00:58:40;;;;;;;20.88;12.35;;;;;;;0.25;71.33;101602.00;672521;29;138193;-64
2021/01/11 00:59:03;;;;;;;20.90;11.27;;;;;;;0.20;71.34;101596.94;675278;29;92515;-65
2021/01/11 00:59:28;;;;;;;20.50;11.27;;;;;;;0.23;71.36;101595.94;676326;29;115147;-64
2021/01/11 00:59:50;;;;;;;23.15;12.55;;;;;;;0.24;71.32;101603.81;677733;29;67429;-64
2021/01/11 01:00:18;;;;;;;21.65;12.15;;;;;;;0.24;71.39;101600.31;673709;29;138781;-63
2021/01/11 01:00:58;;;;;;;18.65;11.80;;;;;;;0.24;71.39;101608.28;671958;29;137818;-64
2021/01/11 01:01:25;;;;;;;20.58;12.40;;;;;;;0.24;71.34;101605.63;673496;29;138892;-65
2021/01/11 01:01:49;;;;;;;19.52;11.73;;;;;;;0.20;71.37;101604.91;676432;29;46395;-65
2021/01/11 01:02:12;;;;;;;19.85;11.80;;;;;;;0.23;71.22;101612.72;675190;29;84126;-65
2021/01/11 01:02:34;;;;;;;20.08;12.55;;;;;;;0.23;71.40;101598.59;678130;29;44396;-65
2021/01/11 01:02:55;;;;;;;20.23;11.80;;;;;;;0.23;71.27;101604.75;678465;29;23341;-64
2021/01/11 01:03:16;;;;;;;20.25;12.02;;;;;;;0.23;71.32;101606.56;678285;29;46349;-65
2021/01/11 01:03:39;;;;;;;19.77;12.13;;;;;;;0.24;71.39;101605.63;681796;28;22483;-64
2021/01/11 01:04:05;;;;;;;20.63;12.32;;;;;;;0.23;71.25;101599.44;683171;28;37535;-65
2021/01/11 01:04:26;;;;;;;21.42;12.63;;;;;;;0.24;71.30;101605.63;681469;28;64285;-64
2021/01/11 01:04:47;;;;;;;19.00;11.23;;;;;;;0.25;71.18;101604.66;683290;28;22527;-65
2021/01/11 01:05:11;;;;;;;20.85;11.50;;;;;;;0.25;71.23;101607.31;683317;28;23375;-65
2021/01/11 01:05:33;;;;;;;20.45;12.05;;;;;;;0.25;71.28;101608.19;680996;28;79115;-66
2021/01/11 01:05:56;;;;;;;20.27;11.88;;;;;;;0.23;71.37;101599.44;684278;28;1339;-67
2021/01/11 01:06:17;;;;;;;20.42;11.93;;;;;;;0.24;71.33;101609.13;684620;28;981;-65
2021/01/11 01:06:38;;;;;;;22.27;12.60;;;;;;;0.26;71.23;101598.41;682220;28;46144;-65
2021/01/11 01:07:02;;;;;;;20.33;11.85;;;;;;;0.28;71.10;101601.81;683044;28;1483;-65
2021/01/11 01:07:25;;;;;;;20.20;11.82;;;;;;;0.26;71.18;101599.25;682287;28;38684;-65
2021/01/11 01:07:46;;;;;;;20.35;12.18;;;;;;;0.27;71.00;101600.13;683833;28;15257;-67
2021/01/11 01:08:07;;;;;;;17.25;11.23;;;;;;;0.25;71.17;101596.69;682943;28;28149;-66
2021/01/11 01:08:28;;;;;;;18.25;11.80;;;;;;;0.22;71.28;101591.56;682893;28;23262;-66
2021/01/11 01:08:50;;;;;;;19.63;12.00;;;;;;;0.26;71.26;101606.38;682669;28;23627;-64
2021/01/11 01:09:12;;;;;;;19.08;11.85;;;;;;;0.26;71.19;101604.56;683341;28;19905;-64
2021/01/11 01:09:33;;;;;;;18.48;11.18;;;;;;;0.26;71.13;101599.25;683145;28;16827;-64
2021/01/11 01:09:54;;;;;;;18.77;11.48;;;;;;;0.22;71.12;101589.78;682419;28;46168;-63
2021/01/11 01:10:15;;;;;;;19.20;11.50;;;;;;;0.25;71.14;101602.88;684241;28;925;-65
2021/01/11 01:10:37;;;;;;;19.27;11.95;;;;;;;0.25;71.06;101596.69;683033;28;23715;-65
2021/01/11 01:10:58;;;;;;;20.38;12.18;;;;;;;0.25;71.32;101600.22;682504;28;47584;-64
2021/01/11 01:11:19;;;;;;;19.92;12.52;;;;;;;0.25;71.17;101599.34;683796;28;1076;-64
2021/01/11 01:11:43;;;;;;;19.65;12.35;;;;;;;0.26;71.19;101601.91;683387;28;1298;-65
2021/01/11 01:12:05;;;;;;;19.55;11.80;;;;;;;0.26;71.05;101603.72;680876;28;80403;-64
2021/01/11 01:12:26;;;;;;;20.92;12.25;;;;;;;0.25;71.10;101602.88;682607;28;45239;-64
2021/01/11 01:12:48;;;;;;;21.13;12.00;;;;;;;0.26;71.25;101604.56;683141;28;23473;-64
2021/01/11 01:13:09;;;;;;;21.50;11.88;;;;;;;0.25;71.21;101600.22;681828;28;46544;-65
2021/01/11 01:13:40;;;;;;;21.13;12.27;;;;;;;0.23;71.24;101602.09;683229;28;99674;-65
2021/01/11 01:14:02;;;;;;;20.17;11.85;;;;;;;0.25;71.21;101608.19;685913;28;13846;-65
2021/01/11 01:14:23;;;;;;;17.52;11.35;;;;;;;0.25;71.16;101609.97;684736;28;47205;-64
2021/01/11 01:14:44;;;;;;;18.48;11.82;;;;;;;0.22;71.22;101595.09;686296;28;950;-64
2021/01/11 01:15:09;;;;;;;18.88;11.52;;;;;;;0.24;71.28;101598.50;685720;28;12994;-65
2021/01/11 01:15:30;;;;;;;21.33;12.35;;;;;;;0.27;71.14;101602.78;682117;28;115697;-64
2021/01/11 01:15:52;;;;;;;19.50;11.27;;;;;;;0.28;71.09;101605.34;685083;28;46279;-66
2021/01/11 01:16:13;;;;;;;19.02;10.93;;;;;;;0.28;71.03;101607.13;686225;28;21549;-65
2021/01/11 01:16:35;;;;;;;19.58;11.85;;;;;;;0.26;70.74;101604.56;684595;28;22472;-66
2021/01/11 01:16:56;;;;;;;17.95;11.45;;;;;;;0.29;70.96;101606.19;684802;28;44403;-66
2021/01/11 01:17:18;;;;;;;21.40;12.10;;;;;;;0.27;70.85;101611.59;684805;28;22501;-65
2021/01/11 01:17:39;;;;;;;21.17;12.27;;;;;;;0.28;71.04;101604.47;686186;28;22397;-66
2021/01/11 01:18:00;;;;;;;20.73;11.75;;;;;;;0.28;71.10;101610.66;685654;28;24586;-66
2021/01/11 01:18:21;;;;;;;19.73;12.05;;;;;;;0.30;70.91;101610.59;685590;28;23313;-66
2021/01/11 01:18:43;;;;;;;19.58;11.88;;;;;;;0.28;70.94;101602.69;686404;28;22400;-63
2021/01/11 01:19:04;;;;;;;21.02;11.77;;;;;;;0.29;70.88;101608.84;684713;28;46359;-64
2021/01/11 01:19:25;;;;;;;20.00;11.30;;;;;;;0.29;71.03;101607.06;685579;28;23472;-63
2021/01/11 01:19:47;;;;;;;19.50;11.77;;;;;;;0.28;71.03;101597.38;684734;28;44336;-62
2021/01/11 01:20:15;;;;;;;20.02;12.18;;;;;;;0.26;70.97;101601.06;685515;28;21516;-63
2021/01/11 01:20:36;;;;;;;20.75;12.15;;;;;;;0.28;70.96;101607.13;681046;28;138259;-64
2021/01/11 01:20:58;;;;;;;20.80;12.00;;;;;;;0.29;70.83;101603.53;686138;28;11819;-64
2021/01/11 01:21:19;;;;;;;20.58;11.55;;;;;;;0.28;70.95;101601.81;686404;28;23490;-66
2021/01/11 01:21:40;;;;;;;19.65;11.80;;;;;;;0.28;70.85;101602.69;685801;28;21548;-66
2021/01/11 01:22:01;;;;;;;18.70;11.32;;;;;;;0.27;70.90;101603.63;685049;28;13927;-66
2021/01/11 01:22:23;;;;;;;20.83;12.20;;;;;;;0.28;70.91;101607.13;684856;28;44361;-66
2021/01/11 01:22:45;;;;;;;19.35;11.68;;;;;;;0.29;71.07;101606.19;686220;28;21561;-64
2021/01/11 01:23:06;;;;;;;16.42;10.80;;;;;;;0.28;70.92;101609.78;684254;28;44362;-64
2021/01/11 01:23:27;;;;;;;19.80;11.55;;;;;;;0.27;70.97;101602.78;685176;28;22378;-64
2021/01/11 01:23:49;;;;;;;22.27;11.90;;;;;;;0.30;70.85;101607.94;686181;28;22247;-66
2021/01/11 01:24:10;;;;;;;20.95;12.00;;;;;;;0.29;70.84;101600.88;683413;28;70324;-66
2021/01/11 01:24:32;;;;;;;19.95;12.35;;;;;;;0.29;70.82;101603.53;685583;28;22416;-66
2021/01/11 01:24:53;;;;;;;18.65;11.57;;;;;;;0.30;70.95;101607.94;685752;28;14371;-66
2021/01/11 01:25:15;;;;;;;18.73;10.90;;;;;;;0.29;70.75;101599.06;685355;28;22510;-65
2021/01/11 01:25:36;;;;;;;19.42;11.48;;;;;;;0.29;70.81;101604.38;684336;28;45007;-65
2021/01/11 01:25:59;;;;;;;18.70;11.60;;;;;;;0.30;70.88;101599.97;685405;28;32959;-64
2021/01/11 01:26:20;;;;;;;18.67;11.15;;;;;;;0.27;70.80;101595.66;681905;28;46426;-64
2021/01/11 01:26:42;;;;;;;18.63;11.43;;;;;;;0.30;70.92;101602.63;682651;28;23436;-62
2021/01/11 01:27:04;;;;;;;19.67;11.63;;;;;;;0.28;70.90;101602.69;682000;28;46258;-64
2021/01/11 01:27:25;;;;;;;20.58;11.88;;;;;;;0.29;70.87;101600.88;681916;28;46996;-63
2021/01/11 01:27:46;;;;;;;18.30;11.35;;;;;;;0.27;70.88;101590.34;682628;28;46463;-65
2021/01/11 01:28:08;;;;;;;19.40;12.15;;;;;;;0.27;70.76;101598.31;683096;28;22163;-65
2021/01/11 01:28:29;;;;;;;20.02;11.75;;;;;;;0.29;70.95;101599.06;685406;28;23467;-65
2021/01/11 01:28:51;;;;;;;17.48;11.02;;;;;;;0.29;70.89;101598.22;685827;28;45291;-64
2021/01/11 01:29:12;;;;;;;16.35;11.07;;;;;;;0.26;70.99;101596.59;684790;28;22376;-64
2021/01/11 01:29:33;;;;;;;17.98;11.57;;;;;;;0.29;70.89;101599.06;685643;28;22393;-64
2021/01/11 01:29:54;;;;;;;18.40;11.52;;;;;;;0.29;71.03;101595.56;685223;28;46085;-64
2021/01/11 01:30:16;;;;;;;17.50;11.07;;;;;;;0.28;70.90;101593.84;685703;28;23822;-66
2021/01/11 01:30:38;;;;;;;19.65;11.48;;;;;;;0.26;70.90;101595.75;684871;28;43747;-66
2021/01/11 01:30:59;;;;;;;19.40;11.45;;;;;;;0.30;70.82;101606.13;685172;28;20871;-66
2021/01/11 01:31:20;;;;;;;17.83;11.57;;;;;;;0.29;70.98;101599.06;682683;28;45690;-66
2021/01/11 01:31:41;;;;;;;18.23;11.38;;;;;;;0.31;70.84;101604.31;683596;28;3239;-67
2021/01/11 01:32:04;;;;;;;17.65;11.18;;;;;;;0.32;70.83;101604.22;682805;28;20995;-66
2021/01/11 01:32:25;;;;;;;19.88;11.68;;;;;;;0.31;70.83;101602.53;681875;28;46385;-66
2021/01/11 01:32:46;;;;;;;18.92;11.73;;;;;;;0.27;70.79;101582.38;682192;28;45251;-66
2021/01/11 01:33:07;;;;;;;18.83;11.25;;;;;;;0.31;70.88;101602.53;682904;28;23524;-65
2021/01/11 01:33:29;;;;;;;17.73;10.80;;;;;;;0.31;70.78;101597.22;685524;28;21535;-66
2021/01/11 01:33:50;;;;;;;19.20;11.25;;;;;;;0.33;70.88;101602.44;685960;28;22420;-64
2021/01/11 01:34:12;;;;;;;19.05;11.68;;;;;;;0.32;70.70;101595.41;684826;28;32599;-63
2021/01/11 01:34:33;;;;;;;17.63;11.50;;;;;;;0.33;70.74;101599.78;685566;28;21515;-63
2021/01/11 01:34:54;;;;;;;20.10;11.98;;;;;;;0.33;70.83;101600.63;684843;28;44392;-63
2021/01/11 01:35:15;;;;;;;18.30;11.35;;;;;;;0.33;70.61;101600.63;685212;28;22498;-66
2021/01/11 01:35:37;;;;;;;17.88;10.80;;;;;;;0.34;70.69;101599.66;685629;28;21406;-66
2021/01/11 01:35:58;;;;;;;16.00;10.73;;;;;;;0.32;70.63;101587.44;684998;28;47181;-66
2021/01/11 01:36:20;;;;;;;18.65;11.60;;;;;;;0.35;70.67;101596.06;686089;28;23418;-63
2021/01/11 01:36:41;;;;;;;17.67;11.15;;;;;;;0.36;70.54;101594.25;685914;28;19584;-62
2021/01/11 01:37:03;;;;;;;17.65;10.80;;;;;;;0.35;70.71;101596.06;685582;28;21359;-62
2021/01/11 01:37:24;;;;;;;18.88;11.40;;;;;;;0.36;70.63;101604.88;684927;28;44232;-64
2021/01/11 01:37:45;;;;;;;19.17;11.55;;;;;;;0.35;70.64;101604.03;686010;28;22364;-63
2021/01/11 01:38:06;;;;;;;18.85;10.95;;;;;;;0.35;70.44;101596.06;685594;28;23359;-63
2021/01/11 01:38:29;;;;;;;17.80;10.60;;;;;;;0.37;70.49;101605.75;685632;28;23497;-63
2021/01/11 01:38:50;;;;;;;17.60;11.00;;;;;;;0.35;70.53;101600.53;684268;28;67330;-66
2021/01/11 01:39:11;;;;;;;17.85;10.80;;;;;;;0.35;70.57;101596.06;685614;28;22401;-66
2021/01/11 01:39:33;;;;;;;17.08;10.60;;;;;;;0.36;70.55;101594.25;686064;28;21531;-65
2021/01/11 01:39:54;;;;;;;16.88;11.07;;;;;;;0.37;70.46;101603.09;685444;28;44393;-65
2021/01/11 01:40:15;;;;;;;18.35;11.50;;;;;;;0.35;70.54;101588.09;686590;28;22408;-65
2021/01/11 01:40:37;;;;;;;18.33;11.25;;;;;;;0.37;70.61;101597.78;685310;28;45277;-66
2021/01/11 01:40:58;;;;;;;17.80;11.05;;;;;;;0.35;70.54;101589.91;686213;28;23402;-64
2021/01/11 01:41:20;;;;;;;20.80;11.77;;;;;;;0.37;70.52;101595.13;686607;28;23473;-62
2021/01/11 01:41:42;;;;;;;19.90;11.45;;;;;;;0.35;70.52;101587.25;685284;28;43842;-63
2021/01/11 01:42:03;;;;;;;19.83;11.13;;;;;;;0.39;70.45;101595.88;686009;28;14753;-63
2021/01/11 01:42:25;;;;;;;17.70;10.38;;;;;;;0.35;70.42;101588.09;686109;28;23444;-63
2021/01/11 01:42:46;;;;;;;17.17;10.60;;;;;;;0.38;70.36;101591.50;685526;28;46542;-64
2021/01/11 01:43:08;;;;;;;18.00;11.27;;;;;;;0.38;70.42;101589.72;684847;28;46489;-65